createdAt,value
2019-06-27T00:01:56.424Z,13.40
2019-06-27T00:04:25.841Z,11.50
2019-06-27T00:06:55.166Z,12.03
2019-06-27T00:09:24.507Z,13.93
2019-06-27T00:11:54.216Z,12.60
2019-06-27T00:14:23.613Z,12.17
2019-06-27T00:16:52.947Z,12.50
2019-06-27T00:19:22.262Z,11.80
2019-06-27T00:21:51.550Z,14.17
2019-06-27T00:24:20.884Z,13.87
2019-06-27T00:26:57.114Z,10.77
2019-06-27T00:29:21.370Z,10.20
2019-06-27T00:31:50.666Z,13.03
2019-06-27T00:34:20.038Z,12.17
2019-06-27T00:36:49.428Z,13.27
2019-06-27T00:39:18.846Z,12.00
2019-06-27T00:41:48.291Z,13.70
2019-06-27T00:44:17.647Z,13.30
2019-06-27T00:46:46.971Z,13.57
2019-06-27T00:49:16.355Z,13.47
2019-06-27T00:51:45.734Z,14.67
2019-06-27T00:54:15.026Z,14.47
2019-06-27T00:56:44.362Z,12.63
2019-06-27T00:59:13.752Z,12.90
2019-06-27T01:01:43.114Z,11.30
2019-06-27T01:04:12.488Z,15.13
2019-06-27T01:06:41.858Z,13.03
2019-06-27T01:09:11.277Z,13.47
2019-06-27T01:11:40.613Z,11.13
2019-06-27T01:14:09.920Z,12.37
2019-06-27T01:16:39.342Z,13.77
2019-06-27T01:19:08.754Z,15.77
2019-06-27T01:21:38.078Z,13.13
2019-06-27T01:24:07.455Z,11.67
2019-06-27T01:26:36.795Z,14.27
2019-06-27T01:29:06.102Z,12.37
2019-06-27T01:31:35.506Z,14.60
2019-06-27T01:34:04.925Z,17.13
2019-06-27T01:36:34.246Z,13.63
2019-06-27T01:39:03.654Z,12.03
2019-06-27T01:41:33.070Z,16.40
2019-06-27T01:44:02.693Z,12.83
2019-06-27T01:46:32.070Z,13.87
2019-06-27T01:49:01.440Z,11.60
2019-06-27T01:51:30.802Z,15.47
2019-06-27T01:54:00.155Z,15.63
2019-06-27T01:56:29.472Z,12.90
2019-06-27T01:58:58.799Z,20.00
2019-06-27T02:01:28.116Z,14.40
2019-06-27T02:03:57.499Z,12.40
2019-06-27T02:06:26.802Z,14.50
2019-06-27T02:08:56.124Z,15.80
2019-06-27T02:11:25.434Z,13.20
2019-06-27T02:13:54.743Z,14.43
2019-06-27T02:16:24.014Z,11.40
2019-06-27T02:18:53.419Z,14.80
2019-06-27T02:21:22.715Z,11.47
2019-06-27T02:23:52.072Z,15.57
2019-06-27T02:26:21.463Z,12.80
2019-06-27T02:28:50.833Z,11.73
2019-06-27T02:31:20.126Z,13.63
2019-06-27T02:33:49.463Z,11.20
2019-06-27T02:36:18.777Z,13.63
2019-06-27T02:38:48.160Z,10.80
2019-06-27T02:41:17.558Z,12.43
2019-06-27T02:43:46.875Z,16.20
2019-06-27T02:46:16.220Z,11.43
2019-06-27T02:48:45.546Z,12.80
2019-06-27T02:51:14.860Z,16.30
2019-06-27T02:53:44.218Z,13.03
2019-06-27T02:56:13.560Z,16.13
2019-06-27T02:58:42.934Z,13.77
2019-06-27T03:01:12.256Z,13.27
2019-06-27T03:03:44.625Z,20.13
2019-06-27T03:06:14.019Z,12.43
2019-06-27T03:08:43.391Z,14.17
2019-06-27T03:11:12.804Z,11.93
2019-06-27T03:13:42.167Z,12.20
2019-06-27T03:16:11.537Z,12.07
2019-06-27T03:18:40.938Z,15.57
2019-06-27T03:21:10.247Z,12.73
2019-06-27T03:23:39.841Z,14.33
2019-06-27T03:26:09.388Z,13.80
2019-06-27T03:28:52.172Z,14.50
2019-06-27T03:31:09.784Z,13.23
2019-06-27T03:33:39.145Z,14.13
2019-06-27T03:36:08.582Z,14.27
2019-06-27T03:38:37.975Z,11.67
2019-06-27T03:41:08.419Z,13.33
2019-06-27T03:43:37.885Z,13.87
2019-06-27T03:46:07.168Z,13.90
2019-06-27T03:48:36.505Z,14.47
2019-06-27T03:51:05.891Z,15.47
2019-06-27T03:53:35.177Z,16.77
2019-06-27T03:56:04.558Z,19.40
2019-06-27T03:58:33.881Z,14.60
2019-06-27T04:01:05.667Z,14.10
2019-06-27T04:03:34.997Z,11.27
2019-06-27T04:06:04.478Z,12.97
2019-06-27T04:08:33.987Z,15.40
2019-06-27T04:11:03.710Z,12.50
2019-06-27T04:13:33.046Z,13.53
2019-06-27T04:16:02.378Z,12.23
2019-06-27T04:18:31.726Z,13.37
2019-06-27T04:21:01.076Z,16.63
2019-06-27T04:23:30.495Z,16.83
2019-06-27T04:25:59.800Z,18.40
2019-06-27T04:28:29.207Z,12.87
2019-06-27T04:30:58.613Z,16.47
2019-06-27T04:33:27.900Z,13.17
2019-06-27T04:35:57.170Z,13.13
2019-06-27T04:38:26.627Z,15.47
2019-06-27T04:40:55.930Z,15.67
2019-06-27T04:43:25.413Z,15.30
2019-06-27T04:45:54.807Z,16.73
2019-06-27T04:48:24.090Z,13.43
2019-06-27T04:50:53.402Z,15.27
2019-06-27T04:53:22.693Z,14.37
2019-06-27T04:55:52.053Z,16.20
2019-06-27T04:58:21.372Z,18.07
2019-06-27T05:00:50.674Z,19.57
2019-06-27T05:03:20.001Z,18.73
2019-06-27T05:05:49.411Z,20.73
2019-06-27T05:08:18.722Z,19.27
2019-06-27T05:10:48.111Z,19.53
2019-06-27T05:13:17.519Z,26.03
2019-06-27T05:15:46.831Z,22.30
2019-06-27T05:18:16.116Z,26.67
2019-06-27T05:20:45.510Z,23.20
2019-06-27T05:23:14.797Z,27.30
2019-06-27T05:25:44.140Z,27.47
2019-06-27T05:28:13.560Z,24.20
2019-06-27T05:30:42.886Z,24.87
2019-06-27T05:33:12.182Z,15.23
2019-06-27T05:35:41.801Z,16.50
2019-06-27T05:38:11.093Z,16.53
2019-06-27T05:40:40.367Z,19.53
2019-06-27T05:43:09.706Z,21.57
2019-06-27T05:45:39.028Z,21.37
2019-06-27T05:48:08.418Z,26.10
2019-06-27T05:50:37.789Z,18.67
2019-06-27T05:53:07.077Z,24.77
2019-06-27T05:55:36.375Z,18.90
2019-06-27T05:58:05.757Z,21.33
2019-06-27T06:00:35.130Z,18.63
2019-06-27T06:03:04.433Z,20.83
2019-06-27T06:05:33.814Z,22.60
2019-06-27T06:08:03.135Z,19.23
2019-06-27T06:10:32.511Z,21.87
2019-06-27T06:13:01.851Z,26.00
2019-06-27T06:15:31.332Z,26.93
2019-06-27T06:18:00.682Z,27.43
2019-06-27T06:20:30.301Z,25.80
2019-06-27T06:22:59.746Z,21.73
2019-06-27T06:25:29.063Z,22.57
2019-06-27T06:27:58.465Z,15.77
2019-06-27T06:30:43.084Z,19.87
2019-06-27T06:32:58.922Z,16.10
2019-06-27T06:35:28.260Z,17.97
2019-06-27T06:37:57.572Z,17.03
2019-06-27T06:40:26.940Z,15.70
2019-06-27T06:43:00.303Z,19.87
2019-06-27T06:45:27.365Z,19.10
2019-06-27T06:47:56.651Z,20.50
2019-06-27T06:50:26.059Z,17.50
2019-06-27T06:52:55.343Z,15.80
2019-06-27T06:55:24.620Z,14.53
2019-06-27T06:57:53.981Z,18.53
2019-06-27T07:00:24.798Z,13.57
2019-06-27T07:02:54.114Z,18.07
2019-06-27T07:05:23.545Z,16.97
2019-06-27T07:07:52.827Z,20.27
2019-06-27T07:10:22.120Z,17.90
2019-06-27T07:12:52.459Z,24.90
2019-06-27T07:15:21.739Z,21.97
2019-06-27T07:17:51.051Z,25.83
2019-06-27T07:20:20.361Z,16.07
2019-06-27T07:22:49.723Z,20.73
2019-06-27T07:25:19.131Z,20.40
2019-06-27T07:27:48.486Z,17.03
2019-06-27T07:30:17.820Z,14.40
2019-06-27T07:32:47.170Z,20.03
2019-06-27T07:35:16.589Z,17.97
2019-06-27T07:37:45.950Z,19.80
2019-06-27T07:40:15.279Z,22.10
2019-06-27T07:43:03.757Z,20.50
2019-06-27T07:45:33.376Z,14.87
2019-06-27T07:48:02.807Z,16.10
2019-06-27T07:50:32.097Z,22.57
2019-06-27T07:53:01.533Z,20.17
2019-06-27T07:55:30.926Z,13.83
2019-06-27T07:58:00.256Z,21.07
2019-06-27T08:00:29.796Z,16.70
2019-06-27T08:02:59.082Z,18.93
2019-06-27T08:05:28.440Z,17.77
2019-06-27T08:07:57.815Z,17.77
2019-06-27T08:10:27.178Z,20.87
2019-06-27T08:12:56.509Z,20.30
2019-06-27T08:15:26.040Z,18.87
2019-06-27T08:17:55.343Z,17.27
2019-06-27T08:20:24.681Z,22.70
2019-06-27T08:22:53.971Z,19.37
2019-06-27T08:25:23.268Z,21.73
2019-06-27T08:27:52.701Z,20.27
2019-06-27T08:30:22.107Z,24.03
2019-06-27T08:32:51.425Z,20.93
2019-06-27T08:35:20.758Z,21.73
2019-06-27T08:37:50.053Z,19.33
2019-06-27T08:40:20.487Z,20.10
2019-06-27T08:42:49.909Z,17.63
2019-06-27T08:45:19.421Z,19.93
2019-06-27T08:47:48.750Z,31.80
2019-06-27T08:50:18.145Z,22.80
2019-06-27T08:52:47.438Z,14.77
2019-06-27T08:55:16.802Z,20.30
2019-06-27T08:57:46.116Z,20.90
2019-06-27T09:00:15.801Z,20.17
2019-06-27T09:02:45.100Z,13.50
2019-06-27T09:05:14.809Z,25.40
2019-06-27T09:07:44.087Z,21.50
2019-06-27T09:10:13.990Z,28.47
2019-06-27T09:12:43.610Z,23.50
2019-06-27T09:15:13.287Z,24.07
2019-06-27T09:17:42.614Z,17.10
2019-06-27T09:20:12.894Z,19.33
2019-06-27T09:22:42.170Z,20.50
2019-06-27T09:25:12.355Z,15.27
2019-06-27T09:27:41.649Z,18.90
2019-06-27T09:30:11.542Z,19.43
2019-06-27T09:32:40.864Z,18.90
2019-06-27T09:35:10.373Z,20.27
2019-06-27T09:37:39.771Z,20.33
2019-06-27T09:40:09.671Z,16.60
2019-06-27T09:42:39.069Z,21.17
2019-06-27T09:45:09.412Z,16.20
2019-06-27T09:47:38.754Z,18.17
2019-06-27T09:50:09.570Z,20.00
2019-06-27T09:52:39.020Z,26.97
2019-06-27T09:55:08.534Z,16.43
2019-06-27T09:57:38.031Z,16.13
2019-06-27T10:00:08.059Z,16.20
2019-06-27T10:02:41.499Z,18.97
2019-06-27T10:05:08.702Z,17.43
2019-06-27T10:07:38.258Z,16.53
2019-06-27T10:10:08.317Z,15.43
2019-06-27T10:12:42.714Z,17.87
2019-06-27T10:15:09.943Z,21.33
2019-06-27T10:17:39.277Z,17.63
2019-06-27T10:20:10.094Z,19.83
2019-06-27T10:22:39.518Z,16.57
2019-06-27T10:25:08.921Z,19.50
2019-06-27T10:27:38.214Z,13.47
2019-06-27T10:30:08.708Z,16.93
2019-06-27T10:32:38.089Z,14.27
2019-06-27T10:35:07.903Z,21.17
2019-06-27T10:37:37.377Z,18.97
2019-06-27T10:40:07.028Z,20.73
2019-06-27T10:42:36.442Z,16.90
2019-06-27T10:45:06.190Z,16.40
2019-06-27T10:47:35.618Z,14.87
2019-06-27T10:50:04.927Z,15.87
2019-06-27T10:52:34.368Z,16.93
2019-06-27T10:55:03.910Z,17.57
2019-06-27T10:57:33.216Z,16.77
2019-06-27T11:00:02.591Z,14.73
2019-06-27T11:02:32.038Z,17.70
2019-06-27T11:05:01.522Z,14.80
2019-06-27T11:07:31.067Z,23.17
2019-06-27T11:10:00.391Z,15.83
2019-06-27T11:12:29.794Z,12.80
2019-06-27T11:14:59.919Z,13.43
2019-06-27T11:17:29.464Z,20.80
2019-06-27T11:19:58.765Z,18.83
2019-06-27T11:22:28.055Z,18.13
2019-06-27T11:24:57.371Z,17.47
2019-06-27T11:27:27.485Z,16.73
2019-06-27T11:29:57.025Z,21.20
2019-06-27T11:32:26.320Z,19.80
2019-06-27T11:34:55.811Z,24.10
2019-06-27T11:37:25.314Z,17.43
2019-06-27T11:39:54.653Z,16.00
2019-06-27T11:42:24.037Z,21.03
2019-06-27T11:44:53.406Z,27.17
2019-06-27T11:47:22.729Z,20.93
2019-06-27T11:49:52.622Z,20.30
2019-06-27T11:52:25.990Z,15.17
2019-06-27T11:54:52.967Z,14.00
2019-06-27T11:57:22.383Z,17.20
2019-06-27T11:59:51.694Z,12.63
2019-06-27T12:02:21.021Z,15.47
2019-06-27T12:04:50.397Z,13.27
2019-06-27T12:07:19.734Z,15.47
2019-06-27T12:09:49.039Z,16.40
2019-06-27T12:12:18.392Z,11.70
2019-06-27T12:14:47.808Z,9.23
2019-06-27T12:17:17.093Z,20.07
2019-06-27T12:19:46.427Z,11.53
2019-06-27T12:22:15.714Z,15.47
2019-06-27T12:24:45.131Z,19.97
2019-06-27T12:27:14.513Z,16.73
2019-06-27T12:29:43.843Z,25.87
2019-06-27T12:32:13.162Z,15.53
2019-06-27T12:34:42.613Z,16.30
2019-06-27T12:37:11.930Z,16.23
2019-06-27T12:39:41.234Z,23.63
2019-06-27T12:42:10.570Z,13.43
2019-06-27T12:44:39.868Z,18.43
2019-06-27T12:47:09.215Z,16.53
2019-06-27T12:49:56.944Z,19.33
2019-06-27T12:52:09.605Z,22.67
2019-06-27T12:54:38.929Z,22.83
2019-06-27T12:57:08.273Z,23.97
2019-06-27T12:59:37.660Z,17.93
2019-06-27T13:02:07.014Z,18.03
2019-06-27T13:04:36.357Z,16.53
2019-06-27T13:07:05.635Z,22.20
2019-06-27T13:09:35.068Z,16.63
2019-06-27T13:12:04.731Z,19.40
2019-06-27T13:14:34.059Z,18.77
2019-06-27T13:17:03.379Z,17.97
2019-06-27T13:19:33.017Z,23.60
2019-06-27T13:22:02.307Z,15.60
2019-06-27T13:24:31.649Z,16.73
2019-06-27T13:27:00.950Z,13.63
2019-06-27T13:29:30.266Z,12.30
2019-06-27T13:31:59.641Z,11.40
2019-06-27T13:34:40.087Z,7.47
2019-06-27T13:37:00.026Z,11.40
2019-06-27T13:39:29.337Z,11.60
2019-06-27T13:41:58.635Z,9.90
2019-06-27T13:44:28.011Z,13.57
2019-06-27T13:46:57.369Z,9.37
2019-06-27T13:49:26.730Z,10.53
2019-06-27T13:51:56.060Z,10.40
2019-06-27T13:54:25.342Z,8.47
2019-06-27T13:56:54.719Z,8.50
2019-06-27T13:59:24.034Z,8.47
2019-06-27T14:01:53.305Z,10.33
2019-06-27T14:04:24.411Z,10.13
2019-06-27T14:06:53.630Z,8.07
2019-06-27T14:09:23.973Z,11.27
2019-06-27T14:11:53.401Z,12.50
2019-06-27T14:14:22.729Z,10.70
2019-06-27T14:16:52.018Z,12.50
2019-06-27T14:19:21.295Z,14.17
2019-06-27T14:21:50.862Z,9.87
2019-06-27T14:24:20.447Z,11.03
2019-06-27T14:26:50.589Z,14.43
2019-06-27T14:29:19.906Z,10.77
2019-06-27T14:31:49.315Z,9.80
2019-06-27T14:34:18.787Z,11.97
2019-06-27T14:36:48.272Z,11.10
2019-06-27T14:39:17.662Z,10.73
2019-06-27T14:41:47.017Z,13.83
2019-06-27T14:44:16.318Z,16.07
2019-06-27T14:46:45.609Z,19.50
2019-06-27T14:49:15.091Z,17.37
2019-06-27T14:51:44.436Z,21.57
2019-06-27T14:54:13.726Z,23.90
2019-06-27T14:56:42.993Z,21.97
2019-06-27T14:59:14.495Z,22.43
2019-06-27T15:01:43.514Z,18.00
2019-06-27T15:04:12.896Z,17.60
2019-06-27T15:06:43.249Z,23.90
2019-06-27T15:09:12.659Z,16.73
2019-06-27T15:11:41.934Z,15.60
2019-06-27T15:14:11.240Z,12.63
2019-06-27T15:16:40.616Z,15.03
2019-06-27T15:19:09.992Z,17.70
2019-06-27T15:21:39.288Z,13.50
2019-06-27T15:24:08.610Z,14.80
2019-06-27T15:26:38.097Z,14.20
2019-06-27T15:29:07.406Z,14.77
2019-06-27T15:31:36.826Z,12.60
2019-06-27T15:34:06.101Z,14.93
2019-06-27T15:36:35.534Z,16.17
2019-06-27T15:39:05.773Z,11.90
2019-06-27T15:41:35.130Z,12.60
2019-06-27T15:44:04.418Z,9.60
2019-06-27T15:46:33.805Z,9.50
2019-06-27T15:49:03.092Z,10.23
2019-06-27T15:51:32.441Z,10.73
2019-06-27T15:54:01.785Z,9.13
2019-06-27T15:56:31.169Z,8.47
2019-06-27T15:59:03.609Z,9.27
2019-06-27T16:01:31.757Z,6.63
2019-06-27T16:04:01.032Z,6.63
2019-06-27T16:06:30.310Z,7.20
2019-06-27T16:08:59.638Z,8.90
2019-06-27T16:11:29.030Z,8.90
2019-06-27T16:13:58.425Z,9.97
2019-06-27T16:16:27.888Z,7.50
2019-06-27T16:18:57.166Z,7.57
2019-06-27T16:21:26.442Z,9.57
2019-06-27T16:23:55.858Z,10.57
2019-06-27T16:26:25.178Z,7.73
2019-06-27T16:28:54.499Z,12.80
2019-06-27T16:31:23.882Z,9.70
2019-06-27T16:33:53.339Z,14.57
2019-06-27T16:36:25.748Z,9.67
2019-06-27T16:38:53.762Z,11.90
2019-06-27T16:41:23.085Z,11.00
2019-06-27T16:43:52.654Z,12.70
2019-06-27T16:46:22.103Z,18.40
2019-06-27T16:48:51.405Z,24.50
2019-06-27T16:51:20.870Z,34.20
2019-06-27T16:53:50.293Z,28.27
2019-06-27T16:56:19.594Z,21.82
2019-06-27T16:58:49.810Z,22.20
2019-06-27T17:01:19.304Z,15.38
2019-06-27T17:03:48.825Z,13.53
2019-06-27T17:06:18.343Z,17.20
2019-06-27T17:08:47.776Z,15.72
2019-06-27T17:11:17.208Z,22.48
2019-06-27T17:13:46.497Z,23.47
2019-06-27T17:16:15.837Z,19.97
2019-06-27T17:18:45.233Z,22.77
2019-06-27T17:21:14.602Z,31.33
2019-06-27T17:23:43.921Z,31.40
2019-06-27T17:26:13.332Z,32.03
2019-06-27T17:28:42.720Z,29.17
2019-06-27T17:31:12.189Z,29.70
2019-06-27T17:33:41.562Z,28.13
2019-06-27T17:36:10.866Z,30.20
2019-06-27T17:38:40.270Z,38.87
2019-06-27T17:41:09.553Z,36.07
2019-06-27T17:43:41.355Z,32.77
2019-06-27T17:46:09.963Z,24.37
2019-06-27T17:48:39.245Z,21.07
2019-06-27T17:51:08.616Z,20.20
2019-06-27T17:53:37.937Z,20.87
2019-06-27T17:56:07.209Z,16.43
2019-06-27T17:58:36.493Z,21.57
2019-06-27T18:01:05.815Z,15.83
2019-06-27T18:03:35.104Z,21.23
2019-06-27T18:06:04.408Z,16.07
2019-06-27T18:08:33.785Z,17.97
2019-06-27T18:11:03.112Z,18.73
2019-06-27T18:13:32.420Z,16.23
2019-06-27T18:16:01.816Z,13.40
2019-06-27T18:18:31.232Z,11.80
2019-06-27T18:21:00.732Z,17.10
2019-06-27T18:23:30.186Z,12.87
2019-06-27T18:25:59.479Z,14.73
2019-06-27T18:28:28.781Z,15.40
2019-06-27T18:30:58.179Z,19.77
2019-06-27T18:33:27.658Z,16.57
2019-06-27T18:35:56.949Z,14.27
2019-06-27T18:38:26.265Z,17.80
2019-06-27T18:40:55.582Z,14.23
2019-06-27T18:43:24.975Z,19.10
2019-06-27T18:45:54.270Z,16.43
2019-06-27T18:48:23.584Z,14.37
2019-06-27T18:50:52.877Z,12.37
2019-06-27T18:53:22.574Z,13.90
2019-06-27T18:55:51.947Z,13.27
2019-06-27T18:58:21.333Z,14.67
2019-06-27T19:00:50.634Z,14.43
2019-06-27T19:03:19.941Z,17.53
2019-06-27T19:05:49.300Z,14.97
2019-06-27T19:08:18.664Z,16.00
2019-06-27T19:10:48.040Z,15.07
2019-06-27T19:13:17.334Z,16.83
2019-06-27T19:15:46.967Z,22.17
2019-06-27T19:18:53.652Z,16.07
2019-06-27T19:21:34.404Z,19.17
2019-06-27T19:24:25.290Z,15.07
2019-06-27T19:26:55.859Z,13.33
2019-06-27T19:29:26.000Z,14.70
2019-06-27T19:31:55.581Z,12.30
2019-06-27T19:34:24.981Z,14.67
2019-06-27T19:36:54.284Z,12.07
2019-06-27T19:39:23.693Z,20.83
2019-06-27T19:41:53.009Z,19.17
2019-06-27T19:44:41.455Z,16.07
2019-06-27T19:47:10.741Z,14.33
2019-06-27T19:49:40.125Z,16.37
2019-06-27T19:52:09.470Z,15.77
2019-06-27T19:54:38.746Z,11.97
2019-06-27T19:57:08.022Z,7.53
2019-06-27T19:59:37.334Z,8.47
2019-06-27T20:02:06.710Z,8.27
2019-06-27T20:04:36.060Z,6.77
2019-06-27T20:07:05.378Z,8.67
2019-06-27T20:09:34.654Z,5.47
2019-06-27T20:12:03.926Z,9.13
2019-06-27T20:14:33.221Z,6.83
2019-06-27T20:17:02.497Z,6.30
2019-06-27T20:19:31.849Z,6.67
2019-06-27T20:22:01.829Z,5.80
2019-06-27T20:24:31.165Z,5.90
2019-06-27T20:27:00.481Z,5.70
2019-06-27T20:29:30.832Z,4.33
2019-06-27T20:32:00.310Z,3.73
2019-06-27T20:34:29.628Z,3.10
2019-06-27T20:36:59.087Z,4.20
2019-06-27T20:39:28.538Z,2.00
2019-06-27T20:41:57.850Z,5.77
2019-06-27T20:44:27.640Z,5.07
2019-06-27T20:46:57.012Z,3.43
2019-06-27T20:49:26.442Z,2.33
2019-06-27T20:51:55.990Z,2.30
2019-06-27T20:54:25.377Z,1.90
2019-06-27T20:56:54.842Z,5.33
2019-06-27T20:59:24.170Z,3.53
2019-06-27T21:01:53.475Z,3.73
2019-06-27T21:04:23.068Z,3.63
2019-06-27T21:06:52.382Z,6.63
2019-06-27T21:09:21.824Z,3.63
2019-06-27T21:11:51.105Z,2.47
2019-06-27T21:14:20.461Z,4.10
2019-06-27T21:16:49.737Z,6.40
2019-06-27T21:19:19.034Z,3.20
2019-06-27T21:21:48.343Z,2.90
2019-06-27T21:24:17.626Z,2.87
2019-06-27T21:26:46.970Z,4.53
2019-06-27T21:29:17.202Z,2.37
2019-06-27T21:31:51.350Z,2.73
2019-06-27T21:34:20.650Z,2.00
2019-06-27T21:36:50.011Z,3.87
2019-06-27T21:39:19.540Z,7.67
2019-06-27T21:41:48.917Z,2.23
2019-06-27T21:44:18.580Z,3.70
2019-06-27T21:46:47.930Z,3.50
2019-06-27T21:49:17.237Z,6.50
2019-06-27T21:51:46.627Z,1.63
2019-06-27T21:54:15.967Z,2.80
2019-06-27T21:56:45.268Z,6.83
2019-06-27T21:59:14.545Z,2.50
2019-06-27T22:01:43.942Z,2.60
2019-06-27T22:04:13.483Z,4.80
2019-06-27T22:06:42.829Z,6.00
2019-06-27T22:09:23.879Z,2.43
2019-06-27T22:11:43.530Z,1.97
2019-06-27T22:14:12.830Z,3.53
2019-06-27T22:16:42.175Z,3.63
2019-06-27T22:19:11.448Z,6.40
2019-06-27T22:21:40.752Z,3.47
2019-06-27T22:24:10.027Z,7.57
2019-06-27T22:26:39.304Z,8.37
2019-06-27T22:29:08.763Z,5.97
2019-06-27T22:31:38.231Z,6.00
2019-06-27T22:34:07.583Z,4.43
2019-06-27T22:36:36.965Z,4.00
2019-06-27T22:39:39.511Z,5.83
2019-06-27T22:42:13.247Z,3.13
2019-06-27T22:45:00.446Z,4.83
2019-06-27T22:47:47.903Z,6.20
2019-06-27T22:50:36.854Z,5.30
2019-06-27T22:53:09.653Z,2.53
2019-06-27T22:55:39.344Z,2.37
2019-06-27T22:58:08.909Z,3.50
2019-06-27T23:00:38.319Z,2.53
2019-06-27T23:03:07.718Z,8.60
2019-06-27T23:05:37.038Z,8.97
2019-06-27T23:08:06.383Z,2.47
2019-06-27T23:10:35.762Z,1.60
2019-06-27T23:13:05.118Z,3.27
2019-06-27T23:15:34.505Z,1.87
2019-06-27T23:18:03.795Z,7.93
2019-06-27T23:20:33.166Z,3.00
2019-06-27T23:23:02.475Z,7.40
2019-06-27T23:25:31.761Z,2.23
2019-06-27T23:28:01.080Z,6.13
2019-06-27T23:30:30.499Z,4.87
2019-06-27T23:32:59.845Z,2.67
2019-06-27T23:35:29.171Z,4.10
2019-06-27T23:37:58.685Z,1.73
2019-06-27T23:40:27.969Z,4.87
2019-06-27T23:42:57.253Z,5.20
2019-06-27T23:45:26.650Z,4.17
2019-06-27T23:47:55.934Z,4.83
2019-06-27T23:50:25.249Z,3.63
2019-06-27T23:52:54.908Z,5.93
2019-06-27T23:55:24.277Z,2.60
2019-06-27T23:57:53.548Z,2.67
